MET'MAP v2.0
soon released !

Expected late october,
this new version will be
more efficient, smarter,
and hosted on a brand new
server x3 powerfull...
...and still free !


Not compatible ?
Try the mobile version !

LOG IN : | Subscribe | Disclaimer | Who is Orbifly ? |
ICAO code :

TAF - LGKR Corfu Kerkyra - 03 Apr 2020 22:51 UTC - Data Source NOAA   


- Airport Elevation : 6 ft
- IATA code : CFU
- No reported NOTAMs.


LGKR - Corfu Kerkyra

Latest METAR recorded : 2015/08/11 07:50 LGKR 110750Z 13005KT 9999 FEW025 28/22 Q1011 NOSIG
TAF TAF LGKR
Valid from the 03 at 18:00 until the 04 at 18:00 UTC


031700Z 0318/0418 36010KT 9999 BKN030 OVC080
PROB40
TEMPO 0318/0415 5000 RA SCT015 BKN030 OVC080
PROB30
TEMPO 0318/0415 3000 TSRA SCT010 BKN020 OVC060

Source NOAA


MET'MAP, your aeronautical weather chart ! - Copyright ORBIFLY December 2007

Programming & Development : Alexandra Zaïnal
Co-Developer : Marc-Olivier Méhu
Technical & hardware support : Manuel Goepfert
Concept & Financing : Baudouin d'Aumeries